createdAt,value
2022-09-23T00:00:07.951Z,61.09
2022-09-23T00:05:08.173Z,61.12
2022-09-23T00:10:07.880Z,61.1
2022-09-23T00:15:08.565Z,61.12
2022-09-23T00:20:08.301Z,61.11
2022-09-23T00:25:08.003Z,61.14
2022-09-23T00:30:07.727Z,61.13
2022-09-23T00:35:08.430Z,61.15
2022-09-23T00:40:08.202Z,61.14
2022-09-23T00:45:07.958Z,61.15
2022-09-23T00:50:07.666Z,61.16
2022-09-23T00:55:08.356Z,61.16
2022-09-23T01:00:08.034Z,61.18
2022-09-23T01:05:07.734Z,61.19
2022-09-23T01:10:08.454Z,61.19
2022-09-23T01:15:08.139Z,61.22
2022-09-23T01:20:07.838Z,61.21
2022-09-23T01:25:18.479Z,61.23
2022-09-23T01:30:12.378Z,61.23
2022-09-23T01:35:07.846Z,61.23
2022-09-23T01:40:08.622Z,61.25
2022-09-23T01:45:08.379Z,61.26
2022-09-23T01:50:18.057Z,61.27
2022-09-23T01:55:07.808Z,61.28
2022-09-23T02:00:08.490Z,61.28
2022-09-23T02:05:08.166Z,61.28
2022-09-23T02:10:07.852Z,61.29
2022-09-23T02:15:08.559Z,61.3
2022-09-23T02:20:08.303Z,61.31
2022-09-23T02:25:08.278Z,61.33
2022-09-23T02:30:07.947Z,61.34
2022-09-23T02:35:07.666Z,61.34
2022-09-23T02:40:08.417Z,61.35
2022-09-23T02:45:08.145Z,61.35
2022-09-23T02:50:07.845Z,61.37
2022-09-23T02:55:08.564Z,61.37
2022-09-23T03:00:08.300Z,61.36
2022-09-23T03:05:07.995Z,61.39
2022-09-23T03:10:07.695Z,61.38
2022-09-23T03:15:08.408Z,61.4
2022-09-23T03:20:08.151Z,61.4
2022-09-23T03:25:07.865Z,61.4
2022-09-23T03:30:08.586Z,61.41
2022-09-23T03:35:08.283Z,61.41
2022-09-23T03:40:08.024Z,61.44
2022-09-23T03:45:07.752Z,61.43
2022-09-23T03:50:08.468Z,61.44
2022-09-23T03:55:08.127Z,61.43
2022-09-23T04:00:07.842Z,61.43
2022-09-23T04:05:02.668Z,61.42
2022-09-23T04:10:02.486Z,61.44
2022-09-23T04:15:02.224Z,61.44
2022-09-23T04:20:02.070Z,61.42
2022-09-23T04:25:01.902Z,61.44
2022-09-23T04:30:01.825Z,61.44
2022-09-23T04:35:02.578Z,61.48
2022-09-23T04:40:02.401Z,61.48
2022-09-23T04:45:02.227Z,61.46
2022-09-23T04:50:02.069Z,61.48
2022-09-23T04:55:01.872Z,61.49
2022-09-23T05:00:02.643Z,61.49
2022-09-23T05:05:02.466Z,61.5
2022-09-23T05:10:02.269Z,61.5
2022-09-23T05:15:02.116Z,61.52
2022-09-23T05:20:01.952Z,61.5
2022-09-23T05:25:01.772Z,61.5
2022-09-23T05:30:02.532Z,61.49
2022-09-23T05:35:02.453Z,61.53
2022-09-23T05:40:02.396Z,61.53
2022-09-23T05:45:02.328Z,61.62
2022-09-23T05:50:02.256Z,61.59
2022-09-23T05:55:02.194Z,61.59
2022-09-23T06:00:02.139Z,61.62
2022-09-23T06:05:02.053Z,61.67
2022-09-23T06:10:01.988Z,61.71
2022-09-23T06:15:01.797Z,61.75
2022-09-23T06:20:02.648Z,61.79
2022-09-23T06:25:02.588Z,61.84
2022-09-23T06:30:02.432Z,61.85
2022-09-23T06:35:02.241Z,61.88
2022-09-23T06:40:02.120Z,61.87
2022-09-23T06:45:01.915Z,61.9
2022-09-23T06:50:02.765Z,61.89
2022-09-23T06:55:02.604Z,61.86
2022-09-23T07:00:02.523Z,61.86
2022-09-23T07:05:02.341Z,61.87
2022-09-23T07:10:02.153Z,61.88
2022-09-23T07:15:02.009Z,61.87
2022-09-23T07:20:01.819Z,61.88
2022-09-23T07:25:02.557Z,61.86
2022-09-23T07:30:02.413Z,61.84
2022-09-23T07:35:02.241Z,61.85
2022-09-23T07:40:02.122Z,61.86
2022-09-23T07:45:01.897Z,61.86
2022-09-23T07:50:02.627Z,61.85
2022-09-23T07:55:02.460Z,61.83
2022-09-23T08:00:02.311Z,61.83
2022-09-23T08:05:02.126Z,61.83
2022-09-23T08:10:01.952Z,61.83
2022-09-23T08:15:01.871Z,61.82
2022-09-23T08:20:02.828Z,61.8
2022-09-23T08:25:02.682Z,61.8
2022-09-23T08:30:02.589Z,61.76
2022-09-23T08:35:02.508Z,61.73
2022-09-23T08:40:02.374Z,61.7
2022-09-23T08:45:02.409Z,61.67
2022-09-23T08:50:02.360Z,61.62
2022-09-23T08:55:02.184Z,61.54
2022-09-23T09:00:01.982Z,61.52
2022-09-23T09:05:04.861Z,61.46
2022-09-23T09:10:12.701Z,61.44
2022-09-23T09:15:02.550Z,61.41
2022-09-23T09:20:02.413Z,61.39
2022-09-23T09:25:02.255Z,61.33
2022-09-23T09:30:02.102Z,61.3
2022-09-23T09:35:01.918Z,61.25
2022-09-23T09:40:02.774Z,61.23
2022-09-23T09:45:02.599Z,61.21
2022-09-23T09:50:02.326Z,61.16
2022-09-23T09:55:02.115Z,61.13
2022-09-23T10:00:01.919Z,61.13
2022-09-23T10:05:01.746Z,61.07
2022-09-23T10:10:15.942Z,61.03
2022-09-23T10:15:01.922Z,61.01
2022-09-23T10:20:01.717Z,61.0
2022-09-23T10:25:07.633Z,60.92
2022-09-23T10:30:12.419Z,60.89
2022-09-23T10:35:02.247Z,60.86
2022-09-23T10:40:02.092Z,60.8
2022-09-23T10:45:01.934Z,60.75
2022-09-23T10:50:01.726Z,60.71
2022-09-23T10:55:02.584Z,60.61
2022-09-23T11:00:02.557Z,60.54
2022-09-23T11:05:02.532Z,60.47
2022-09-23T11:10:02.490Z,60.42
2022-09-23T11:15:02.440Z,60.34
2022-09-23T11:20:12.459Z,60.32
2022-09-23T11:25:02.395Z,60.24
2022-09-23T11:30:02.254Z,60.24
2022-09-23T11:35:02.117Z,60.16
2022-09-23T11:40:01.931Z,60.13
2022-09-23T11:45:01.716Z,60.08
2022-09-23T11:50:02.464Z,60.04
2022-09-23T11:55:04.294Z,59.99
2022-09-23T12:00:01.819Z,59.98
2022-09-23T12:05:02.920Z,59.98
2022-09-23T12:10:01.966Z,59.99
2022-09-23T12:15:01.737Z,59.93
2022-09-23T12:20:02.551Z,59.93
2022-09-23T12:25:12.088Z,59.9
2022-09-23T12:30:01.952Z,59.87
2022-09-23T12:35:01.767Z,59.84
2022-09-23T12:40:02.658Z,59.81
2022-09-23T12:45:02.425Z,59.76
2022-09-23T12:50:02.274Z,59.73
2022-09-23T12:55:02.393Z,59.66
2022-09-23T13:00:02.224Z,59.63
2022-09-23T13:05:02.059Z,59.54
2022-09-23T13:10:08.136Z,59.53
2022-09-23T13:15:02.016Z,59.49
2022-09-23T13:20:01.893Z,59.44
2022-09-23T13:25:02.710Z,59.4
2022-09-23T13:30:02.411Z,59.37
2022-09-23T13:35:02.166Z,59.32
2022-09-23T13:40:02.056Z,59.33
2022-09-23T13:45:01.955Z,59.31
2022-09-23T13:50:01.870Z,59.32
2022-09-23T13:55:02.896Z,59.33
2022-09-23T14:00:02.841Z,59.33
2022-09-23T14:05:02.790Z,59.32
2022-09-23T14:10:02.710Z,59.32
2022-09-23T14:15:02.530Z,59.33
2022-09-23T14:20:02.369Z,59.33
2022-09-23T14:25:02.207Z,59.33
2022-09-23T14:30:02.004Z,59.32
2022-09-23T14:35:01.765Z,59.31
2022-09-23T14:40:02.595Z,59.32
2022-09-23T14:45:02.429Z,59.31
2022-09-23T14:50:02.282Z,59.3
2022-09-23T14:55:02.191Z,59.31
2022-09-23T15:00:02.023Z,59.31
2022-09-23T15:05:01.870Z,59.32
2022-09-23T15:10:02.701Z,59.33
2022-09-23T15:15:02.514Z,59.32
2022-09-23T15:20:04.494Z,59.3
2022-09-23T15:25:12.330Z,59.34
2022-09-23T15:30:02.109Z,59.34
2022-09-23T15:35:01.950Z,59.35
2022-09-23T15:40:01.781Z,59.34
2022-09-23T15:45:02.643Z,59.39
2022-09-23T15:50:02.463Z,59.39
2022-09-23T15:55:02.399Z,59.41
2022-09-23T16:00:02.267Z,59.45
2022-09-23T16:05:02.041Z,59.45
2022-09-23T16:10:01.893Z,59.48
2022-09-23T16:15:03.339Z,59.47
2022-09-23T16:20:02.342Z,59.49
2022-09-23T16:25:02.339Z,59.5
2022-09-23T16:30:02.317Z,59.55
2022-09-23T16:35:02.345Z,59.56
2022-09-23T16:40:02.363Z,59.61
2022-09-23T16:45:02.458Z,59.63
2022-09-23T16:50:02.427Z,59.66
2022-09-23T16:55:02.378Z,59.7
2022-09-23T17:00:02.203Z,59.72
2022-09-23T17:05:02.057Z,59.75
2022-09-23T17:10:01.901Z,59.76
2022-09-23T17:15:02.738Z,59.78
2022-09-23T17:20:02.577Z,59.81
2022-09-23T17:25:02.390Z,59.83
2022-09-23T17:30:02.221Z,59.87
2022-09-23T17:35:02.046Z,59.91
2022-09-23T17:40:01.907Z,59.92
2022-09-23T17:45:02.817Z,59.94
2022-09-23T17:50:02.721Z,59.94
2022-09-23T17:55:02.503Z,60.0
2022-09-23T18:00:02.808Z,60.04
2022-09-23T18:05:02.545Z,60.03
2022-09-23T18:10:02.286Z,60.06
2022-09-23T18:15:02.114Z,60.05
2022-09-23T18:20:01.961Z,60.06
2022-09-23T18:25:13.065Z,60.1
2022-09-23T18:30:02.736Z,60.11
2022-09-23T18:35:02.593Z,60.15
2022-09-23T18:40:02.400Z,60.17
2022-09-23T18:45:02.221Z,60.21
2022-09-23T18:50:02.074Z,60.24
2022-09-23T18:55:01.900Z,60.27
2022-09-23T19:00:02.822Z,60.29
2022-09-23T19:05:02.752Z,60.32
2022-09-23T19:10:02.701Z,60.32
2022-09-23T19:15:02.631Z,60.37
2022-09-23T19:20:02.565Z,60.39
2022-09-23T19:25:02.485Z,60.42
2022-09-23T19:30:02.416Z,60.44
2022-09-23T19:35:02.365Z,60.47
2022-09-23T19:40:02.162Z,60.49
2022-09-23T19:45:01.990Z,60.51
2022-09-23T19:50:01.737Z,60.53
2022-09-23T19:55:02.466Z,60.55
2022-09-23T20:00:02.341Z,60.58
2022-09-23T20:05:02.149Z,60.61
2022-09-23T20:10:01.968Z,60.6
2022-09-23T20:15:01.854Z,60.63
2022-09-23T20:20:02.640Z,60.63
2022-09-23T20:25:03.246Z,60.67
2022-09-23T20:30:02.079Z,60.66
2022-09-23T20:35:14.721Z,60.69
2022-09-23T20:40:08.475Z,60.72
2022-09-23T20:45:08.197Z,60.72
2022-09-23T20:50:07.889Z,60.75
2022-09-23T20:55:08.633Z,60.75
2022-09-23T21:00:08.350Z,60.78
2022-09-23T21:05:08.072Z,60.81
2022-09-23T21:10:07.889Z,60.82
2022-09-23T21:15:08.602Z,60.8
2022-09-23T21:20:08.381Z,60.83
2022-09-23T21:25:28.070Z,60.87
2022-09-23T21:30:08.833Z,60.86
2022-09-23T21:35:08.561Z,60.89
2022-09-23T21:40:08.339Z,60.91
2022-09-23T21:45:08.076Z,60.91
2022-09-23T21:50:07.774Z,60.93
2022-09-23T21:55:08.457Z,60.96
2022-09-23T22:00:08.233Z,60.95
2022-09-23T22:05:07.911Z,60.98
2022-09-23T22:10:08.650Z,60.98
2022-09-23T22:15:08.340Z,60.99
2022-09-23T22:20:08.131Z,60.99
2022-09-23T22:25:07.870Z,61.01
2022-09-23T22:30:08.599Z,61.02
2022-09-23T22:35:08.443Z,61.03
2022-09-23T22:40:08.220Z,61.03
2022-09-23T22:45:08.004Z,61.06
2022-09-23T22:50:07.708Z,61.06
2022-09-23T22:55:08.571Z,61.09
2022-09-23T23:01:00.696Z,61.11
2022-09-23T23:05:08.588Z,61.13
2022-09-23T23:10:08.378Z,61.12
2022-09-23T23:15:08.073Z,61.14
2022-09-23T23:20:07.782Z,61.16
2022-09-23T23:25:08.503Z,61.18
2022-09-23T23:30:08.222Z,61.21
2022-09-23T23:35:07.946Z,61.21
2022-09-23T23:40:07.738Z,61.24
2022-09-23T23:45:08.460Z,61.24
2022-09-23T23:50:08.210Z,61.26
2022-09-23T23:55:07.895Z,61.27
